Time;durP1;ratioP1;P1;durP2;ratioP2;P2;SDS_P1;SDS_P2;PMS_P1;PMS_P2;Temp;Humidity;BMP_temperature;BMP_pressure;BME280_temperature;BME280_humidity;BME280_pressure;Samples;Min_cycle;Max_cycle;Signal;HPM_P1;HPM_P2
2021/12/28 00:01:17;;;;;;;17.13;2.57;;;;;;;8.12;91.46;97203.38;5057679;28;20305;-59
2021/12/28 00:03:46;;;;;;;18.30;2.33;;;;;;;8.14;91.18;97195.38;5058324;28;20195;-55
2021/12/28 00:06:15;;;;;;;12.23;2.10;;;;;;;8.10;90.64;97197.53;5058320;28;20366;-56
2021/12/28 00:08:42;;;;;;;10.07;1.80;;;;;;;8.01;91.90;97190.75;5058228;28;20201;-56
2021/12/28 00:11:13;;;;;;;16.10;3.23;;;;;;;8.03;91.27;97193.16;5057507;28;20218;-56
2021/12/28 00:13:43;;;;;;;17.23;2.50;;;;;;;8.11;91.63;97203.53;5058867;28;20260;-56
2021/12/28 00:18:56;;;;;;;17.87;2.27;;;;;;;8.24;90.23;97195.97;5058150;28;20198;-58
2021/12/28 00:21:23;;;;;;;21.27;3.20;;;;;;;8.24;90.46;97188.19;5057411;28;20202;-58
2021/12/28 00:23:51;;;;;;;16.07;2.53;;;;;;;8.29;90.33;97192.88;5058029;28;20195;-56
2021/12/28 00:26:20;;;;;;;14.47;2.70;;;;;;;8.22;90.57;97191.94;5058153;28;20522;-58
2021/12/28 00:28:47;;;;;;;11.00;2.60;;;;;;;8.18;90.96;97193.28;5058129;28;20179;-57
2021/12/28 00:31:15;;;;;;;20.93;3.03;;;;;;;8.13;91.48;97197.19;5055988;28;20226;-58
2021/12/28 00:33:44;;;;;;;13.20;3.80;;;;;;;8.28;90.31;97193.88;5058047;28;20183;-58
2021/12/28 00:36:12;;;;;;;14.23;2.53;;;;;;;8.22;90.23;97181.56;5058030;28;20325;-58
2021/12/28 00:38:39;;;;;;;9.43;2.20;;;;;;;8.20;90.01;97178.31;5058009;28;20179;-58
2021/12/28 00:41:07;;;;;;;16.50;2.43;;;;;;;8.21;90.17;97174.72;5057353;28;20222;-58
2021/12/28 00:43:34;;;;;;;13.30;2.97;;;;;;;8.25;88.65;97161.22;5057989;28;20193;-58
2021/12/28 00:46:02;;;;;;;10.67;2.40;;;;;;;8.22;89.53;97166.75;5057946;28;20194;-58
2021/12/28 00:48:28;;;;;;;12.60;1.83;;;;;;;8.19;89.66;97164.50;5057920;28;20194;-59
2021/12/28 00:50:56;;;;;;;10.53;2.10;;;;;;;8.21;88.66;97165.13;5057284;28;20203;-57
2021/12/28 00:53:24;;;;;;;6.73;1.60;;;;;;;8.25;88.18;97156.00;5057946;28;20191;-58
2021/12/28 00:55:51;;;;;;;5.40;1.60;;;;;;;8.21;88.07;97153.94;5056499;28;20688;-58
2021/12/28 00:58:18;;;;;;;13.53;4.00;;;;;;;8.22;87.14;97155.56;5057853;28;20195;-58
2021/12/28 01:00:46;;;;;;;14.73;1.67;;;;;;;8.14;87.28;97146.00;5057060;28;20754;-58
2021/12/28 01:03:14;;;;;;;7.30;1.40;;;;;;;8.12;87.66;97151.38;5057892;28;20187;-58
2021/12/28 01:05:41;;;;;;;8.67;1.23;;;;;;;8.11;87.58;97151.53;5057744;28;20187;-58
2021/12/28 01:08:09;;;;;;;5.10;1.33;;;;;;;8.02;88.18;97139.56;5057879;28;20244;-57
2021/12/28 01:10:41;;;;;;;8.07;1.30;;;;;;;7.96;88.52;97138.47;5053108;28;20299;-55
2021/12/28 01:13:09;;;;;;;8.33;1.10;;;;;;;7.96;88.90;97130.69;5054562;28;20679;-58
2021/12/28 01:15:37;;;;;;;6.93;1.20;;;;;;;7.95;88.86;97124.66;5054347;28;20188;-57
2021/12/28 01:18:04;;;;;;;6.20;1.30;;;;;;;7.99;89.39;97130.34;5054487;28;20183;-55
2021/12/28 01:20:31;;;;;;;7.13;1.50;;;;;;;8.10;88.64;97126.53;5053955;28;20207;-56
2021/12/28 01:22:58;;;;;;;7.70;1.70;;;;;;;8.15;88.60;97119.03;5054365;28;20205;-57
2021/12/28 01:25:26;;;;;;;12.10;1.93;;;;;;;8.19;88.14;97119.50;5054441;28;20200;-56
2021/12/28 01:27:54;;;;;;;10.27;1.60;;;;;;;8.21;87.46;97118.34;5054340;28;20259;-56
2021/12/28 01:30:24;;;;;;;14.97;1.57;;;;;;;8.24;87.08;97117.19;5053624;28;20709;-56
2021/12/28 01:32:52;;;;;;;11.50;1.77;;;;;;;8.24;86.33;97120.59;5054208;28;20194;-54
2021/12/28 01:35:21;;;;;;;7.83;1.30;;;;;;;8.25;87.04;97103.22;5054169;28;20472;-57
2021/12/28 01:37:48;;;;;;;12.37;2.07;;;;;;;8.35;86.43;97111.59;5053980;28;20620;-58
2021/12/28 01:40:18;;;;;;;8.47;1.40;;;;;;;8.34;87.20;97103.97;5053483;28;20211;-54
2021/12/28 01:43:02;;;;;;;8.90;1.37;;;;;;;8.41;86.57;97108.31;5053878;28;20184;-58
2021/12/28 01:45:38;;;;;;;10.60;2.13;;;;;;;8.43;86.73;97095.13;5054034;28;20270;-57
2021/12/28 01:48:05;;;;;;;10.77;2.03;;;;;;;8.58;84.58;97092.56;5053902;28;20207;-56
2021/12/28 01:50:33;;;;;;;10.70;2.10;;;;;;;8.53;85.40;97093.13;5053167;28;20283;-56
2021/12/28 01:53:00;;;;;;;7.20;1.30;;;;;;;8.63;84.12;97087.66;5053718;28;20195;-58
2021/12/28 01:55:27;;;;;;;11.77;1.80;;;;;;;8.66;84.34;97092.50;5054379;28;20536;-58
2021/12/28 01:57:54;;;;;;;9.17;1.60;;;;;;;8.69;84.15;97081.75;5053720;28;20601;-58
2021/12/28 02:00:23;;;;;;;13.07;1.33;;;;;;;8.67;84.65;97073.31;5053015;28;20218;-58
2021/12/28 02:02:49;;;;;;;8.77;1.23;;;;;;;8.73;82.71;97074.41;5053566;28;20184;-58
2021/12/28 02:05:16;;;;;;;11.60;1.20;;;;;;;8.74;84.29;97080.41;5053606;28;20298;-58
2021/12/28 02:07:43;;;;;;;8.87;1.53;;;;;;;8.70;83.04;97077.38;5053437;28;20226;-58
2021/12/28 02:10:11;;;;;;;8.50;1.43;;;;;;;8.66;83.79;97070.91;5052841;28;20179;-58
2021/12/28 02:12:37;;;;;;;10.40;1.30;;;;;;;8.69;82.72;97070.53;5053553;28;20271;-58
2021/12/28 02:15:12;;;;;;;11.73;2.10;;;;;;;8.69;82.90;97052.34;5053344;28;20656;-57
2021/12/28 02:17:41;;;;;;;9.10;1.27;;;;;;;8.73;82.00;97051.00;5053272;28;20207;-58
2021/12/28 02:20:13;;;;;;;8.20;1.17;;;;;;;8.69;82.95;97049.75;5052011;28;20192;-59
2021/12/28 02:22:41;;;;;;;12.50;1.80;;;;;;;8.73;82.27;97043.19;5053031;28;20617;-57
2021/12/28 02:25:09;;;;;;;9.57;1.00;;;;;;;8.78;81.32;97045.25;5053242;28;20187;-59
2021/12/28 02:27:36;;;;;;;7.83;1.40;;;;;;;8.81;82.15;97034.47;5053243;28;20187;-59
2021/12/28 02:30:06;;;;;;;6.17;1.10;;;;;;;8.87;80.74;97018.16;5052879;28;20188;-58
2021/12/28 02:32:33;;;;;;;7.93;1.37;;;;;;;8.80;80.40;97023.28;5052892;28;20282;-59
2021/12/28 02:34:59;;;;;;;5.73;1.20;;;;;;;8.79;81.60;97018.25;5053246;28;20197;-59
2021/12/28 02:37:28;;;;;;;4.90;1.00;;;;;;;8.78;81.22;97020.06;5054012;28;20251;-57
2021/12/28 02:39:55;;;;;;;11.43;1.50;;;;;;;8.79;80.36;97010.44;5052397;28;20187;-58
2021/12/28 02:42:23;;;;;;;7.32;1.13;;;;;;;8.84;80.93;97015.91;5052255;28;20997;-59
2021/12/28 02:44:58;;;;;;;5.90;1.23;;;;;;;8.83;80.99;97015.13;5052752;28;20640;-59
2021/12/28 02:47:25;;;;;;;8.37;1.60;;;;;;;8.89;80.91;97010.19;5052776;28;20278;-58
2021/12/28 02:49:52;;;;;;;5.70;1.20;;;;;;;8.93;79.81;96998.44;5052355;28;20262;-58
2021/12/28 02:52:19;;;;;;;5.57;0.80;;;;;;;8.95;80.08;96981.63;5052647;28;20287;-58
2021/12/28 02:54:48;;;;;;;4.87;1.00;;;;;;;9.04;79.17;96987.53;5052692;28;20278;-57
2021/12/28 02:57:15;;;;;;;9.77;1.07;;;;;;;9.04;80.12;96981.53;5052526;28;20294;-59
2021/12/28 02:59:47;;;;;;;6.10;0.80;;;;;;;9.10;78.78;96978.22;5051969;28;20233;-58
2021/12/28 03:02:14;;;;;;;3.90;0.90;;;;;;;9.13;78.32;96973.44;5052465;28;20203;-58
2021/12/28 03:04:41;;;;;;;3.70;1.07;;;;;;;9.18;78.37;96975.50;5052450;28;20187;-58
2021/12/28 03:07:08;;;;;;;6.63;0.70;;;;;;;9.29;76.75;96967.22;5052394;28;20263;-58
2021/12/28 03:09:34;;;;;;;4.03;1.13;;;;;;;9.28;76.79;96976.03;5051766;28;20653;-58
2021/12/28 03:12:03;;;;;;;6.23;0.97;;;;;;;9.31;77.33;96964.44;5052071;28;20298;-59
2021/12/28 03:14:30;;;;;;;9.27;1.93;;;;;;;9.32;77.63;96960.81;5052315;28;20276;-59
2021/12/28 03:16:57;;;;;;;6.77;1.10;;;;;;;9.39;77.74;96968.72;5052234;28;20215;-58
2021/12/28 03:19:24;;;;;;;6.07;0.83;;;;;;;9.38;78.33;96961.91;5052264;28;20266;-59
2021/12/28 03:21:51;;;;;;;4.80;1.13;;;;;;;9.37;78.97;96948.06;5051622;28;20203;-58
2021/12/28 03:24:18;;;;;;;5.70;1.03;;;;;;;9.37;78.43;96947.28;5052205;28;20601;-58
2021/12/28 03:26:45;;;;;;;6.47;0.97;;;;;;;9.33;78.91;96935.63;5051975;28;20214;-58
2021/12/28 03:29:13;;;;;;;4.97;1.00;;;;;;;9.25;80.11;96939.94;5052026;28;20221;-59
2021/12/28 03:31:40;;;;;;;3.07;0.50;;;;;;;9.20;80.26;96939.69;5051195;28;20207;-59
2021/12/28 03:34:07;;;;;;;4.67;0.73;;;;;;;9.21;79.51;96941.31;5052004;28;20192;-58
2021/12/28 03:36:34;;;;;;;5.27;1.03;;;;;;;9.22;79.78;96942.91;5051921;28;20188;-58
2021/12/28 03:39:02;;;;;;;6.10;1.10;;;;;;;9.24;79.57;96932.31;5051907;28;20192;-58
2021/12/28 03:41:31;;;;;;;5.37;0.60;;;;;;;9.25;80.69;96939.13;5051160;28;20212;-57
2021/12/28 03:43:58;;;;;;;4.33;0.77;;;;;;;9.17;82.29;96924.44;5052071;28;20275;-58
2021/12/28 03:46:28;;;;;;;4.27;0.50;;;;;;;9.13;81.13;96933.59;5051838;28;20250;-58
2021/12/28 03:48:56;;;;;;;5.03;0.60;;;;;;;9.06;82.90;96932.72;5051827;28;20274;-57
2021/12/28 03:51:23;;;;;;;2.47;0.63;;;;;;;9.01;83.98;96908.03;5051162;28;20211;-57
2021/12/28 03:53:50;;;;;;;5.57;0.83;;;;;;;8.91;84.31;96923.13;5051648;28;20215;-58
2021/12/28 03:56:18;;;;;;;3.27;0.50;;;;;;;8.85;86.11;96909.06;5051570;28;20196;-58
2021/12/28 03:58:46;;;;;;;5.60;0.60;;;;;;;8.86;85.54;96908.09;5051589;28;20294;-56
2021/12/28 04:01:15;;;;;;;4.10;0.50;;;;;;;8.79;85.39;96901.16;5050924;28;20199;-58
2021/12/28 04:03:44;;;;;;;2.93;0.30;;;;;;;8.77;84.33;96903.16;5051693;28;20241;-58
2021/12/28 04:06:11;;;;;;;2.97;0.30;;;;;;;8.84;82.75;96888.44;5051589;28;20274;-57
2021/12/28 04:08:40;;;;;;;2.83;0.50;;;;;;;8.89;82.50;96898.31;5051631;28;20277;-58
2021/12/28 04:11:25;;;;;;;0.90;0.20;;;;;;;8.88;82.25;96887.06;5050870;28;20285;-58
2021/12/28 04:13:55;;;;;;;1.87;0.40;;;;;;;8.93;81.36;96873.53;5051736;28;20274;-58
2021/12/28 04:16:22;;;;;;;4.50;0.40;;;;;;;8.96;81.08;96865.34;5051511;28;20271;-58
2021/12/28 04:18:51;;;;;;;1.50;0.30;;;;;;;8.93;80.91;96871.72;5051410;28;20243;-56
2021/12/28 04:21:18;;;;;;;0.33;0.20;;;;;;;8.97;79.58;96848.75;5050847;28;20242;-57
2021/12/28 04:23:45;;;;;;;1.17;0.30;;;;;;;9.04;80.23;96875.63;5051340;28;20216;-56
2021/12/28 04:26:12;;;;;;;1.73;0.27;;;;;;;9.10;79.76;96868.88;5051440;28;20188;-57
2021/12/28 04:28:39;;;;;;;2.53;0.40;;;;;;;9.06;80.14;96883.25;5051533;28;20198;-58
2021/12/28 04:31:07;;;;;;;1.10;0.40;;;;;;;8.97;81.75;96878.16;5050847;28;20211;-57
2021/12/28 04:33:37;;;;;;;3.53;0.80;;;;;;;8.92;82.48;96861.50;5051361;28;20187;-58
2021/12/28 04:36:08;;;;;;;1.57;0.30;;;;;;;8.89;83.70;96875.69;5051512;28;20184;-58
2021/12/28 04:38:34;;;;;;;0.73;0.40;;;;;;;8.92;83.47;96874.53;5051466;28;20208;-57
2021/12/28 04:41:01;;;;;;;0.50;0.30;;;;;;;8.83;84.33;96864.22;5050620;28;20200;-55
2021/12/28 04:43:29;;;;;;;0.70;0.20;;;;;;;8.84;83.31;96854.59;5051451;28;20262;-57
2021/12/28 04:45:56;;;;;;;1.27;0.20;;;;;;;8.84;83.42;96859.81;5054771;28;20198;-58
2021/12/28 04:48:23;;;;;;;2.13;0.40;;;;;;;8.82;83.20;96861.78;5054971;28;20189;-58
2021/12/28 04:50:50;;;;;;;0.83;0.20;;;;;;;8.88;82.22;96850.66;5054293;28;20209;-57
2021/12/28 04:53:19;;;;;;;1.53;0.20;;;;;;;8.91;81.35;96839.09;5053674;28;20290;-57
2021/12/28 04:55:48;;;;;;;2.10;0.30;;;;;;;8.94;81.44;96846.53;5054920;28;20267;-58
2021/12/28 04:58:15;;;;;;;0.40;0.30;;;;;;;9.04;79.96;96835.78;5054825;28;20200;-57
2021/12/28 05:00:44;;;;;;;1.27;0.30;;;;;;;9.10;79.00;96838.44;5054170;28;20299;-58
2021/12/28 05:03:11;;;;;;;3.13;0.20;;;;;;;9.12;79.58;96838.28;5054802;28;20270;-57
2021/12/28 05:05:43;;;;;;;2.83;0.20;;;;;;;9.18;78.83;96845.34;5054703;28;20267;-56
2021/12/28 05:08:11;;;;;;;0.80;0.20;;;;;;;9.26;78.22;96834.00;5054699;28;20194;-56
2021/12/28 05:10:39;;;;;;;0.73;0.10;;;;;;;9.32;77.35;96832.44;5053833;28;20217;-57
2021/12/28 05:13:07;;;;;;;0.83;0.10;;;;;;;9.37;75.54;96817.88;5054738;28;20211;-58
2021/12/28 05:15:33;;;;;;;0.57;0.20;;;;;;;9.31;78.52;96831.63;5054527;28;20188;-55
2021/12/28 05:18:01;;;;;;;3.27;0.37;;;;;;;9.30;79.07;96825.63;5054541;28;20208;-58
2021/12/28 05:20:28;;;;;;;0.40;0.30;;;;;;;9.23;79.26;96829.97;5054087;28;20198;-59
2021/12/28 05:22:55;;;;;;;1.43;0.10;;;;;;;9.20;80.12;96838.16;5054495;28;20238;-57
2021/12/28 05:25:22;;;;;;;0.80;0.50;;;;;;;9.20;80.49;96817.34;5054249;28;20213;-58
2021/12/28 05:27:50;;;;;;;0.73;0.20;;;;;;;9.19;81.80;96820.09;5054293;28;20665;-57
2021/12/28 05:30:17;;;;;;;1.13;0.40;;;;;;;9.14;82.41;96826.69;5053845;28;20198;-57
2021/12/28 05:32:44;;;;;;;0.30;0.10;;;;;;;9.08;81.44;96801.38;5054258;28;20272;-58
2021/12/28 05:35:10;;;;;;;1.37;0.20;;;;;;;9.00;82.70;96822.38;5054558;28;20183;-58
2021/12/28 05:37:38;;;;;;;1.40;0.20;;;;;;;9.03;82.03;96813.38;5052795;28;20217;-56
2021/12/28 05:40:05;;;;;;;2.13;0.30;;;;;;;9.13;80.80;96811.25;5053422;28;20271;-58
2021/12/28 05:42:32;;;;;;;9.77;4.07;;;;;;;9.24;79.02;96813.38;5053951;28;20713;-58
2021/12/28 05:45:00;;;;;;;0.63;0.20;;;;;;;9.30;77.80;96820.44;5054019;28;20183;-58
2021/12/28 05:47:27;;;;;;;0.20;0.10;;;;;;;9.23;79.91;96803.94;5053911;28;20267;-57
2021/12/28 05:49:54;;;;;;;0.80;0.20;;;;;;;9.29;78.39;96803.19;5053261;28;20183;-58
2021/12/28 05:52:21;;;;;;;1.60;0.23;;;;;;;9.34;78.62;96794.81;5053815;28;20290;-59
2021/12/28 05:54:48;;;;;;;3.80;0.43;;;;;;;9.34;78.85;96807.81;5053424;28;20188;-59
2021/12/28 05:57:17;;;;;;;1.03;0.40;;;;;;;9.40;77.75;96795.88;5053705;28;20190;-59
2021/12/28 05:59:44;;;;;;;0.67;0.20;;;;;;;9.49;76.69;96818.19;5053259;28;20680;-58
2021/12/28 06:02:12;;;;;;;2.80;1.53;;;;;;;9.49;76.67;96802.56;5053535;28;20210;-59
2021/12/28 06:04:39;;;;;;;0.80;0.50;;;;;;;9.47;78.03;96817.56;5053710;28;20216;-59
2021/12/28 06:07:06;;;;;;;3.70;1.07;;;;;;;9.42;78.44;96822.53;5053580;28;20184;-58
2021/12/28 06:09:32;;;;;;;0.80;0.30;;;;;;;9.46;77.15;96800.31;5053108;28;20293;-58
2021/12/28 06:11:59;;;;;;;1.33;1.00;;;;;;;9.48;77.39;96818.34;5053373;28;20644;-58
2021/12/28 06:14:26;;;;;;;0.93;0.33;;;;;;;9.52;77.28;96817.81;5053982;28;20241;-57
2021/12/28 06:16:53;;;;;;;2.30;0.37;;;;;;;9.51;77.83;96826.63;5053582;28;20227;-57
2021/12/28 06:19:21;;;;;;;0.83;0.27;;;;;;;9.56;77.38;96826.03;5053318;28;20238;-58
2021/12/28 06:21:48;;;;;;;0.23;0.23;;;;;;;9.55;78.30;96822.59;5052643;28;20689;-58
2021/12/28 06:24:15;;;;;;;0.50;0.40;;;;;;;9.52;79.16;96843.84;5053220;28;20195;-58
2021/12/28 06:26:42;;;;;;;0.67;0.30;;;;;;;9.50;80.09;96837.19;5053284;28;20179;-58
2021/12/28 06:29:11;;;;;;;0.77;0.60;;;;;;;9.44;80.11;96846.59;5053174;28;20656;-56
2021/12/28 06:31:38;;;;;;;0.57;0.23;;;;;;;9.36;81.48;96838.91;5052550;28;20211;-57
2021/12/28 06:34:07;;;;;;;0.87;0.33;;;;;;;9.35;80.60;96824.28;5053156;28;20202;-58
2021/12/28 06:36:35;;;;;;;0.37;0.20;;;;;;;9.39;79.68;96836.72;5051670;28;20732;-57
2021/12/28 06:39:03;;;;;;;1.27;0.20;;;;;;;9.41;80.60;96849.56;5052841;28;20219;-58
2021/12/28 06:41:30;;;;;;;2.43;1.20;;;;;;;9.37;82.55;96854.31;5052209;28;20282;-58
2021/12/28 06:43:57;;;;;;;2.30;0.53;;;;;;;9.29;83.48;96838.81;5052940;28;20263;-58
2021/12/28 06:46:23;;;;;;;0.30;0.10;;;;;;;9.23;83.77;96829.16;5052844;28;20217;-57
2021/12/28 06:48:50;;;;;;;0.77;0.40;;;;;;;9.25;84.16;96824.56;5052795;28;20720;-57
2021/12/28 06:51:17;;;;;;;1.83;1.20;;;;;;;9.25;84.37;96817.59;5052119;28;20199;-58
2021/12/28 06:53:45;;;;;;;0.13;0.13;;;;;;;9.32;82.03;96819.44;5052646;28;20195;-58
2021/12/28 06:56:12;;;;;;;0.23;0.13;;;;;;;9.38;82.04;96826.50;5052720;28;20234;-58
2021/12/28 06:58:40;;;;;;;0.23;0.10;;;;;;;9.47;81.45;96825.38;5052552;28;20217;-57
2021/12/28 07:01:08;;;;;;;0.30;0.10;;;;;;;9.54;81.22;96833.22;5051885;28;20210;-58
2021/12/28 07:03:35;;;;;;;0.60;0.20;;;;;;;9.57;81.24;96815.41;5052428;28;20191;-59
2021/12/28 07:06:03;;;;;;;0.07;0.00;;;;;;;9.66;79.60;96815.28;5052516;28;20198;-58
2021/12/28 07:08:30;;;;;;;0.20;0.20;;;;;;;9.72;79.61;96814.50;5051927;28;20187;-59
2021/12/28 07:10:58;;;;;;;0.20;0.17;;;;;;;9.76;79.23;96810.53;5051598;28;20215;-58
2021/12/28 07:13:25;;;;;;;0.47;0.13;;;;;;;9.74;80.70;96808.13;5052426;28;20270;-57
2021/12/28 07:15:52;;;;;;;0.50;0.20;;;;;;;9.73;82.01;96829.16;5052295;28;20560;-58
2021/12/28 07:18:20;;;;;;;2.43;0.50;;;;;;;9.71;83.57;96823.31;5052121;28;20223;-58
2021/12/28 07:20:48;;;;;;;0.73;0.20;;;;;;;9.62;84.28;96821.84;5051586;28;20208;-57
2021/12/28 07:23:15;;;;;;;0.77;0.30;;;;;;;9.56;85.39;96832.03;5052395;28;20195;-58
2021/12/28 07:25:42;;;;;;;0.50;0.50;;;;;;;9.52;86.47;96832.59;5052183;28;20270;-57
2021/12/28 07:28:10;;;;;;;0.50;0.50;;;;;;;9.50;87.48;96853.66;5052075;28;20707;-57
2021/12/28 07:30:37;;;;;;;0.40;0.20;;;;;;;9.50;87.61;96847.63;5051509;28;20199;-59
2021/12/28 07:33:04;;;;;;;0.13;0.13;;;;;;;9.39;90.01;96830.72;5051983;28;20189;-58
2021/12/28 07:35:31;;;;;;;0.70;0.63;;;;;;;9.41;90.32;96839.16;5051982;28;20274;-58
2021/12/28 07:37:58;;;;;;;1.17;0.53;;;;;;;9.35;91.00;96860.72;5051928;28;20228;-56
2021/12/28 07:40:25;;;;;;;1.17;1.03;;;;;;;9.33;89.57;96853.09;5051189;28;20276;-57
2021/12/28 07:42:52;;;;;;;3.13;2.67;;;;;;;9.42;88.32;96848.56;5051123;28;20419;-57
2021/12/28 07:45:20;;;;;;;1.10;1.00;;;;;;;9.39;89.19;96856.75;5051819;28;20657;-59
2021/12/28 07:47:47;;;;;;;1.73;0.97;;;;;;;9.35;89.84;96858.91;5051879;28;20193;-56
2021/12/28 07:50:17;;;;;;;0.60;0.53;;;;;;;9.40;90.16;96866.19;5051195;28;20195;-59
2021/12/28 07:52:45;;;;;;;0.33;0.30;;;;;;;9.45;88.92;96877.63;5051759;28;20266;-58
2021/12/28 07:55:13;;;;;;;0.63;0.63;;;;;;;9.43;90.55;96869.19;5052010;28;20598;-57
2021/12/28 07:57:40;;;;;;;0.33;0.23;;;;;;;9.41;90.75;96870.41;5051662;28;20194;-59
2021/12/28 08:00:12;;;;;;;0.50;0.50;;;;;;;9.46;90.60;96888.88;5051050;28;20215;-58
2021/12/28 08:02:42;;;;;;;0.30;0.30;;;;;;;9.49;90.12;96885.06;5051769;28;20272;-58
2021/12/28 08:05:10;;;;;;;0.27;0.23;;;;;;;9.48;90.69;96891.28;5051716;28;20188;-57
2021/12/28 08:07:37;;;;;;;0.90;0.40;;;;;;;9.49;91.14;96887.69;5051597;28;20272;-59
2021/12/28 08:10:04;;;;;;;0.90;0.73;;;;;;;9.52;90.63;96879.50;5050980;28;20540;-58
2021/12/28 08:12:31;;;;;;;0.80;0.80;;;;;;;9.51;91.79;96904.75;5051469;28;20218;-58
2021/12/28 08:14:58;;;;;;;1.30;0.40;;;;;;;9.55;90.41;96895.53;5051604;28;20268;-57
2021/12/28 08:17:26;;;;;;;0.43;0.30;;;;;;;9.56;92.00;96898.97;5051599;28;20191;-58
2021/12/28 08:19:54;;;;;;;0.70;0.53;;;;;;;9.49;93.22;96896.31;5054492;28;20244;-59
2021/12/28 08:22:21;;;;;;;0.30;0.30;;;;;;;9.51;92.78;96907.34;5055967;28;20298;-58
2021/12/28 08:24:47;;;;;;;2.97;0.93;;;;;;;9.49;92.50;96891.09;5055495;28;20206;-57
2021/12/28 08:27:14;;;;;;;0.57;0.50;;;;;;;9.52;92.28;96919.38;5055462;28;20184;-58
2021/12/28 08:29:41;;;;;;;2.67;0.60;;;;;;;9.53;93.27;96907.97;5054996;28;20216;-56
2021/12/28 08:32:08;;;;;;;0.40;0.40;;;;;;;9.59;91.18;96915.00;5055384;28;20218;-56
2021/12/28 08:34:35;;;;;;;0.20;0.20;;;;;;;9.66;90.84;96930.72;5055385;28;20189;-56
2021/12/28 08:37:04;;;;;;;0.70;0.40;;;;;;;9.79;89.73;96924.81;5055275;28;20215;-59
2021/12/28 08:39:31;;;;;;;2.33;0.20;;;;;;;9.76;89.62;96919.97;5055153;28;20227;-59
2021/12/28 08:41:58;;;;;;;0.60;0.40;;;;;;;9.83;89.36;96920.03;5054947;28;20207;-57
2021/12/28 08:44:27;;;;;;;0.53;0.13;;;;;;;9.84;89.09;96929.47;5055306;28;20279;-59
2021/12/28 08:46:54;;;;;;;1.10;1.00;;;;;;;9.90;89.20;96933.94;5055167;28;20191;-57
2021/12/28 08:49:21;;;;;;;0.60;0.30;;;;;;;9.87;89.76;96937.69;5055111;28;20189;-55
2021/12/28 08:51:48;;;;;;;25.53;12.60;;;;;;;9.92;88.61;96921.53;5052991;28;20307;-57
2021/12/28 08:54:16;;;;;;;50.60;21.53;;;;;;;9.95;88.30;96938.56;5054966;28;20184;-59
2021/12/28 08:56:44;;;;;;;28.77;11.53;;;;;;;9.96;88.35;96940.19;5054888;28;20735;-59
2021/12/28 08:59:11;;;;;;;2.20;1.30;;;;;;;10.06;86.86;96953.69;5054841;28;20214;-59
2021/12/28 09:01:38;;;;;;;2.57;0.67;;;;;;;10.07;88.02;96972.75;5054289;28;20290;-57
2021/12/28 09:04:07;;;;;;;0.30;0.30;;;;;;;10.07;88.61;96976.16;5054892;28;20274;-57
2021/12/28 09:06:34;;;;;;;0.73;0.60;;;;;;;10.10;88.48;96978.41;5054700;28;20677;-56
2021/12/28 09:09:01;;;;;;;9.63;6.47;;;;;;;10.10;87.88;96981.00;5054818;28;20601;-56
2021/12/28 09:11:31;;;;;;;0.40;0.40;;;;;;;10.17;87.03;96958.41;5054003;28;20232;-56
2021/12/28 09:13:57;;;;;;;2.50;2.30;;;;;;;10.15;87.71;96972.59;5053307;28;20195;-57
2021/12/28 09:16:24;;;;;;;1.20;0.80;;;;;;;10.16;87.69;96984.66;5054608;28;20276;-56
2021/12/28 09:18:51;;;;;;;0.97;0.80;;;;;;;10.28;86.76;96990.16;5054323;28;20205;-57
2021/12/28 09:21:18;;;;;;;2.33;0.70;;;;;;;10.27;85.94;97004.19;5053811;28;20286;-55
2021/12/28 09:23:45;;;;;;;1.53;0.63;;;;;;;10.23;87.84;96993.31;5054178;28;20218;-55
2021/12/28 09:26:11;;;;;;;0.70;0.20;;;;;;;10.25;87.17;97008.78;5054374;28;20187;-56
2021/12/28 09:28:40;;;;;;;0.60;0.50;;;;;;;10.26;87.38;97013.03;5054326;28;20194;-57
2021/12/28 09:31:08;;;;;;;0.40;0.40;;;;;;;10.25;87.41;97017.41;5051697;28;20311;-56
2021/12/28 09:33:35;;;;;;;0.80;0.60;;;;;;;10.21;88.08;97010.16;5054084;28;20554;-56
2021/12/28 09:36:05;;;;;;;2.20;1.10;;;;;;;10.21;88.15;97018.00;5054275;28;20219;-55
2021/12/28 09:38:31;;;;;;;0.77;0.30;;;;;;;10.16;88.95;97031.56;5054072;28;20196;-54
2021/12/28 09:40:58;;;;;;;0.40;0.40;;;;;;;10.15;89.32;97009.09;5053543;28;20278;-57
2021/12/28 09:43:25;;;;;;;0.47;0.40;;;;;;;10.16;88.91;97006.31;5054055;28;20195;-56
2021/12/28 09:45:54;;;;;;;1.10;0.70;;;;;;;10.18;88.99;97004.34;5053912;28;20663;-57
2021/12/28 09:48:21;;;;;;;2.00;0.20;;;;;;;10.17;88.57;97010.53;5053901;28;20668;-56
2021/12/28 09:50:47;;;;;;;0.80;0.40;;;;;;;10.25;88.71;97019.22;5053279;28;20231;-56
2021/12/28 09:53:16;;;;;;;0.10;0.10;;;;;;;10.38;87.78;97010.69;5053913;28;20187;-54
2021/12/28 09:55:43;;;;;;;0.20;0.10;;;;;;;10.36;87.88;97016.09;5053828;28;20234;-57
2021/12/28 09:58:11;;;;;;;0.30;0.20;;;;;;;10.36;88.22;97031.75;5053832;28;20187;-56
2021/12/28 10:00:37;;;;;;;0.37;0.30;;;;;;;10.42;87.21;97027.59;5052862;28;20732;-56
2021/12/28 10:03:06;;;;;;;0.10;0.10;;;;;;;10.44;87.44;97021.22;5053707;28;20271;-57
2021/12/28 10:05:33;;;;;;;0.30;0.20;;;;;;;10.42;87.34;97017.16;5053689;28;20226;-57
2021/12/28 10:08:03;;;;;;;0.23;0.10;;;;;;;10.46;87.00;97021.84;5053736;28;20237;-59
2021/12/28 10:10:34;;;;;;;0.50;0.30;;;;;;;10.51;87.70;97013.44;5052969;28;20216;-57
2021/12/28 10:13:03;;;;;;;0.37;0.30;;;;;;;10.49;86.95;97028.47;5053501;28;20549;-59
2021/12/28 10:15:32;;;;;;;0.33;0.30;;;;;;;10.61;87.07;96997.44;5053577;28;20238;-57
2021/12/28 10:18:02;;;;;;;0.67;0.30;;;;;;;10.71;87.17;97005.72;5053423;28;20274;-59
2021/12/28 10:20:33;;;;;;;0.20;0.10;;;;;;;10.69;87.68;97014.75;5052689;28;20250;-59
2021/12/28 10:23:03;;;;;;;0.70;0.23;;;;;;;10.71;86.29;97008.31;5053416;28;20192;-57
2021/12/28 10:25:32;;;;;;;0.53;0.30;;;;;;;10.71;86.82;97016.16;5053274;28;20196;-57
2021/12/28 10:28:02;;;;;;;0.67;0.40;;;;;;;10.75;86.46;97022.59;5053427;28;20501;-57
2021/12/28 10:30:31;;;;;;;0.33;0.20;;;;;;;10.82;85.45;97020.06;5052520;28;20182;-57
2021/12/28 10:32:59;;;;;;;0.90;0.50;;;;;;;10.89;85.93;97009.63;5052913;28;20314;-59
2021/12/28 10:35:29;;;;;;;0.33;0.30;;;;;;;10.85;85.84;97009.22;5052999;28;20192;-56
2021/12/28 10:38:00;;;;;;;0.30;0.20;;;;;;;10.81;85.64;97017.63;5052950;28;20221;-60
2021/12/28 10:40:31;;;;;;;3.07;1.33;;;;;;;10.78;87.14;97011.00;5052546;28;20746;-58
2021/12/28 10:43:03;;;;;;;0.50;0.30;;;;;;;10.91;84.76;97015.47;5052009;28;20199;-59
2021/12/28 10:45:36;;;;;;;0.30;0.30;;;;;;;10.87;85.99;97011.63;5053021;28;20821;-56
2021/12/28 10:48:07;;;;;;;0.23;0.20;;;;;;;10.84;85.85;97030.28;5052888;28;20199;-59
2021/12/28 10:50:38;;;;;;;0.30;0.30;;;;;;;10.87;85.03;97020.28;5052044;28;20200;-57
2021/12/28 10:53:11;;;;;;;0.50;0.30;;;;;;;10.90;85.50;97013.84;5052755;28;20189;-59
2021/12/28 10:55:39;;;;;;;0.50;0.30;;;;;;;10.90;85.49;97026.91;5052721;28;20542;-58
2021/12/28 10:58:06;;;;;;;0.57;0.30;;;;;;;10.95;85.78;97013.28;5052741;28;20191;-57
2021/12/28 11:00:38;;;;;;;0.70;0.30;;;;;;;10.89;86.29;97022.69;5051935;28;20266;-58
2021/12/28 11:03:23;;;;;;;0.10;0.10;;;;;;;10.96;86.17;97004.47;5052463;28;20194;-59
2021/12/28 11:05:52;;;;;;;0.40;0.20;;;;;;;10.96;86.79;97028.75;5052600;28;20188;-60
2021/12/28 11:08:23;;;;;;;0.53;0.30;;;;;;;10.88;88.85;97024.50;5052559;28;20219;-57
2021/12/28 11:10:54;;;;;;;3.80;0.20;;;;;;;10.79;90.25;97017.81;5051678;28;20241;-55
2021/12/28 11:13:22;;;;;;;0.60;0.40;;;;;;;10.66;91.55;97015.91;5052195;28;20185;-60
2021/12/28 11:15:49;;;;;;;0.73;0.30;;;;;;;10.62;93.06;97017.31;5052330;28;20208;-59
2021/12/28 11:18:18;;;;;;;4.33;1.37;;;;;;;10.54;94.33;97004.44;5052327;28;20405;-57
2021/12/28 11:20:45;;;;;;;2.80;1.63;;;;;;;10.73;93.31;97013.38;5051542;28;20266;-57
2021/12/28 11:23:15;;;;;;;1.00;0.40;;;;;;;10.77;93.80;97010.16;5052309;28;20187;-58
2021/12/28 11:25:44;;;;;;;0.70;0.40;;;;;;;10.84;92.34;97009.41;5052132;28;20195;-58
2021/12/28 11:28:16;;;;;;;2.43;0.60;;;;;;;10.83;94.22;97013.00;5052070;28;20226;-59
2021/12/28 11:31:01;;;;;;;0.90;0.43;;;;;;;10.76;95.21;96997.34;5051435;28;20285;-56
2021/12/28 11:33:42;;;;;;;1.37;0.43;;;;;;;10.62;95.10;97014.69;5052124;28;20190;-56
2021/12/28 11:36:09;;;;;;;0.70;0.50;;;;;;;10.50;97.72;97009.19;5052102;28;20187;-59
2021/12/28 11:38:37;;;;;;;0.57;0.40;;;;;;;10.52;97.50;96990.78;5050660;28;20694;-59
2021/12/28 11:41:05;;;;;;;5.10;2.17;;;;;;;10.50;97.80;96977.09;5051139;28;20212;-59
2021/12/28 11:43:33;;;;;;;0.47;0.40;;;;;;;10.54;97.69;96967.91;5052007;28;20237;-56
2021/12/28 11:46:00;;;;;;;0.97;0.43;;;;;;;10.49;98.79;96984.13;5051954;28;20215;-57